Time;durP1;ratioP1;P1;durP2;ratioP2;P2;SDS_P1;SDS_P2;PMS_P1;PMS_P2;Temp;Humidity;BMP_temperature;BMP_pressure;BME280_temperature;BME280_humidity;BME280_pressure;Samples;Min_cycle;Max_cycle;Signal;HPM_P1;HPM_P2
2024/01/31 00:01:15;;;;;;;12.05;7.28;;;;;;;;;;5116463;28;20031;-64
2024/01/31 00:03:40;;;;;;;12.10;7.35;;;;;;;;;;5116628;28;20054;-64
2024/01/31 00:06:06;;;;;;;14.05;8.23;;;;;;;;;;5116573;28;20036;-64
2024/01/31 00:08:32;;;;;;;13.18;7.82;;;;;;;;;;5116544;28;20024;-63
2024/01/31 00:10:57;;;;;;;13.18;7.93;;;;;;;;;;5098240;28;20115;-63
2024/01/31 00:13:23;;;;;;;13.18;7.40;;;;;;;;;;5116481;28;20485;-63
2024/01/31 00:15:48;;;;;;;12.80;8.07;;;;;;;;;;5116403;28;20415;-63
2024/01/31 00:18:14;;;;;;;13.77;7.80;;;;;;;;;;5116379;28;20024;-63
2024/01/31 00:20:39;;;;;;;15.50;8.48;;;;;;;;;;5116261;28;20361;-64
2024/01/31 00:23:06;;;;;;;23.92;10.75;;;;;;;;;;5116668;28;20456;-63
2024/01/31 00:25:31;;;;;;;27.80;12.32;;;;;;;;;;5116446;28;20112;-63
2024/01/31 00:27:58;;;;;;;22.95;10.65;;;;;;;;;;5116177;28;20069;-63
2024/01/31 00:30:23;;;;;;;35.90;14.25;;;;;;;;;;5116140;28;20027;-64
2024/01/31 00:32:48;;;;;;;34.30;14.50;;;;;;;;;;5116102;28;20020;-64
2024/01/31 00:35:14;;;;;;;32.45;14.40;;;;;;;;;;5097582;28;20034;-63
2024/01/31 00:37:39;;;;;;;31.40;13.38;;;;;;;;;;5116095;28;20031;-64
2024/01/31 00:40:05;;;;;;;24.83;10.88;;;;;;;;;;5115756;28;20020;-64
2024/01/31 00:42:31;;;;;;;22.48;11.10;;;;;;;;;;5115880;28;20077;-64
2024/01/31 00:44:58;;;;;;;18.40;9.95;;;;;;;;;;5115821;28;20024;-63
2024/01/31 00:47:24;;;;;;;21.85;10.68;;;;;;;;;;5097100;28;20401;-64
2024/01/31 00:49:49;;;;;;;15.45;9.80;;;;;;;;;;5098220;28;20031;-64
2024/01/31 00:52:16;;;;;;;13.75;8.82;;;;;;;;;;5115849;28;20110;-64
2024/01/31 00:54:41;;;;;;;13.18;8.43;;;;;;;;;;5115915;28;20028;-64
2024/01/31 00:57:07;;;;;;;13.48;8.30;;;;;;;;;;5097126;28;20099;-63
2024/01/31 00:59:32;;;;;;;13.40;8.18;;;;;;;;;;5115844;28;20066;-63
2024/01/31 01:01:58;;;;;;;13.90;7.95;;;;;;;;;;5115685;28;20035;-63
2024/01/31 01:04:23;;;;;;;13.80;8.20;;;;;;;;;;5115277;28;20042;-63
2024/01/31 01:06:48;;;;;;;12.38;7.88;;;;;;;;;;5115404;28;20055;-65
2024/01/31 01:09:14;;;;;;;13.55;8.75;;;;;;;;;;5115320;28;20062;-64
2024/01/31 01:11:39;;;;;;;15.25;9.48;;;;;;;;;;5115220;28;20080;-64
2024/01/31 01:14:06;;;;;;;17.55;10.13;;;;;;;;;;5115506;28;20027;-65
2024/01/31 01:16:32;;;;;;;17.52;10.05;;;;;;;;;;5096638;28;20032;-65
2024/01/31 01:18:57;;;;;;;17.08;10.35;;;;;;;;;;5115002;28;20032;-65
2024/01/31 01:21:24;;;;;;;19.30;10.75;;;;;;;;;;5114857;28;20043;-65
2024/01/31 01:23:50;;;;;;;19.38;11.20;;;;;;;;;;5115055;28;20015;-65
2024/01/31 01:26:15;;;;;;;16.00;10.70;;;;;;;;;;5079777;28;20026;-64
2024/01/31 01:28:43;;;;;;;15.93;10.38;;;;;;;;;;5115334;28;20019;-65
2024/01/31 01:31:10;;;;;;;15.15;10.50;;;;;;;;;;5114645;28;20034;-64
2024/01/31 01:33:36;;;;;;;13.48;9.40;;;;;;;;;;5114980;28;20037;-64
2024/01/31 01:36:03;;;;;;;14.35;8.88;;;;;;;;;;5114670;28;20405;-63
2024/01/31 01:38:29;;;;;;;13.50;8.88;;;;;;;;;;5115097;28;20028;-63
2024/01/31 01:40:55;;;;;;;11.82;8.15;;;;;;;;;;5096178;28;20127;-64
2024/01/31 01:43:20;;;;;;;14.00;8.80;;;;;;;;;;5114298;28;20016;-64
2024/01/31 01:45:46;;;;;;;13.00;9.48;;;;;;;;;;5114396;28;20015;-64
2024/01/31 01:48:18;;;;;;;14.63;9.60;;;;;;;;;;5097194;28;20023;-64
2024/01/31 01:50:44;;;;;;;14.82;9.85;;;;;;;;;;5114673;28;20024;-66
2024/01/31 01:53:10;;;;;;;18.33;11.65;;;;;;;;;;5096105;28;20061;-66
2024/01/31 01:55:36;;;;;;;14.35;9.52;;;;;;;;;;5114642;28;20062;-65
2024/01/31 01:58:02;;;;;;;15.20;9.82;;;;;;;;;;5114755;28;20086;-65
2024/01/31 02:00:27;;;;;;;17.73;10.90;;;;;;;;;;5096601;28;20034;-64
2024/01/31 02:02:53;;;;;;;15.75;9.82;;;;;;;;;;5114598;28;20093;-64
2024/01/31 02:05:18;;;;;;;14.00;8.98;;;;;;;;;;5114213;28;20034;-65
2024/01/31 02:07:44;;;;;;;15.25;9.48;;;;;;;;;;5114591;28;20047;-64
2024/01/31 02:10:10;;;;;;;16.13;9.27;;;;;;;;;;5114160;28;20063;-63
2024/01/31 02:12:36;;;;;;;15.52;9.68;;;;;;;;;;5114207;28;20020;-63
2024/01/31 02:15:01;;;;;;;18.52;11.48;;;;;;;;;;5114059;28;20111;-64
2024/01/31 02:17:27;;;;;;;13.65;9.50;;;;;;;;;;5114380;28;20042;-64
2024/01/31 02:19:52;;;;;;;13.52;9.05;;;;;;;;;;5114445;28;20038;-64
2024/01/31 02:22:18;;;;;;;11.73;8.60;;;;;;;;;;5114443;28;20426;-64
2024/01/31 02:24:45;;;;;;;14.68;8.35;;;;;;;;;;5114443;28;20081;-64
2024/01/31 02:27:10;;;;;;;14.82;9.68;;;;;;;;;;5114389;28;20080;-63
2024/01/31 02:29:38;;;;;;;11.50;8.32;;;;;;;;;;5114179;28;20103;-63
2024/01/31 02:32:05;;;;;;;9.13;7.72;;;;;;;;;;5114414;28;20108;-64
2024/01/31 02:34:30;;;;;;;13.32;8.82;;;;;;;;;;5114156;28;20380;-63
2024/01/31 02:36:55;;;;;;;16.73;9.98;;;;;;;;;;5095941;28;20032;-63
2024/01/31 02:39:21;;;;;;;12.43;9.15;;;;;;;;;;5114135;28;20027;-63
2024/01/31 02:41:46;;;;;;;16.15;10.40;;;;;;;;;;5114719;28;20323;-63
2024/01/31 02:44:12;;;;;;;11.05;8.48;;;;;;;;;;5113767;28;20027;-64
2024/01/31 02:46:37;;;;;;;12.13;8.95;;;;;;;;;;5113794;28;20091;-64
2024/01/31 02:49:02;;;;;;;13.13;8.93;;;;;;;;;;5113689;28;20020;-64
2024/01/31 02:51:28;;;;;;;13.00;8.88;;;;;;;;;;5113997;28;20032;-64
2024/01/31 02:53:53;;;;;;;11.02;8.43;;;;;;;;;;5096068;28;20034;-65
2024/01/31 02:56:19;;;;;;;12.38;9.32;;;;;;;;;;5115739;28;20039;-65
2024/01/31 02:58:44;;;;;;;14.25;9.50;;;;;;;;;;5117481;28;20019;-64
2024/01/31 03:01:09;;;;;;;12.45;9.45;;;;;;;;;;5103494;28;20040;-64
2024/01/31 03:03:35;;;;;;;14.32;9.70;;;;;;;;;;5117829;28;20032;-64
2024/01/31 03:06:00;;;;;;;16.77;9.93;;;;;;;;;;5116464;28;20043;-64
2024/01/31 03:08:26;;;;;;;17.13;10.27;;;;;;;;;;5117583;28;20110;-64
2024/01/31 03:10:51;;;;;;;18.58;9.93;;;;;;;;;;5117709;28;20048;-64
2024/01/31 03:13:16;;;;;;;14.70;9.73;;;;;;;;;;5117587;28;20034;-63
2024/01/31 03:15:42;;;;;;;14.77;9.50;;;;;;;;;;5117687;28;20058;-63
2024/01/31 03:18:07;;;;;;;16.17;10.20;;;;;;;;;;5117909;28;20078;-64
2024/01/31 03:20:35;;;;;;;13.50;9.45;;;;;;;;;;5117302;27;20027;-64
2024/01/31 03:23:01;;;;;;;14.60;9.57;;;;;;;;;;5117749;28;20032;-64
2024/01/31 03:25:27;;;;;;;14.20;9.23;;;;;;;;;;5116209;28;20091;-64
2024/01/31 03:27:52;;;;;;;12.98;10.10;;;;;;;;;;5117714;28;20442;-64
2024/01/31 03:30:19;;;;;;;16.15;9.32;;;;;;;;;;5117295;28;20023;-64
2024/01/31 03:32:45;;;;;;;13.50;9.05;;;;;;;;;;5116467;28;20114;-64
2024/01/31 03:35:11;;;;;;;14.65;9.18;;;;;;;;;;5117179;28;20031;-65
2024/01/31 03:37:36;;;;;;;14.05;9.68;;;;;;;;;;5116815;28;20035;-64
2024/01/31 03:40:04;;;;;;;14.38;9.48;;;;;;;;;;5116921;28;20031;-65
2024/01/31 03:42:29;;;;;;;14.43;9.63;;;;;;;;;;5115886;28;20108;-65
2024/01/31 03:44:57;;;;;;;13.85;9.93;;;;;;;;;;5117063;28;20453;-65
2024/01/31 03:47:22;;;;;;;14.27;9.40;;;;;;;;;;5116006;28;20023;-65
2024/01/31 03:49:47;;;;;;;13.00;9.63;;;;;;;;;;5116864;28;20050;-65
2024/01/31 03:52:13;;;;;;;13.98;9.70;;;;;;;;;;5116930;28;20507;-64
2024/01/31 03:54:39;;;;;;;16.17;10.63;;;;;;;;;;5116584;28;20427;-64
2024/01/31 03:57:04;;;;;;;20.05;11.07;;;;;;;;;;5116993;28;20034;-64
2024/01/31 03:59:31;;;;;;;19.73;11.85;;;;;;;;;;5117162;28;20023;-63
2024/01/31 04:01:56;;;;;;;17.38;11.05;;;;;;;;;;5116298;28;20036;-63
2024/01/31 04:04:21;;;;;;;14.07;9.73;;;;;;;;;;5116539;28;20072;-62
2024/01/31 04:06:47;;;;;;;15.35;10.98;;;;;;;;;;5116100;28;20354;-63
2024/01/31 04:09:13;;;;;;;18.40;11.95;;;;;;;;;;5116383;28;20020;-63
2024/01/31 04:11:38;;;;;;;21.10;12.13;;;;;;;;;;5116111;28;20030;-64
2024/01/31 04:14:04;;;;;;;16.08;10.57;;;;;;;;;;5116633;28;20038;-64
2024/01/31 04:16:29;;;;;;;15.10;10.45;;;;;;;;;;5116677;28;20024;-64
2024/01/31 04:18:55;;;;;;;16.15;10.65;;;;;;;;;;5116236;28;20043;-64
2024/01/31 04:21:20;;;;;;;15.27;10.30;;;;;;;;;;5116748;28;20026;-65
2024/01/31 04:23:46;;;;;;;15.85;10.27;;;;;;;;;;5116455;28;20457;-65
2024/01/31 04:26:11;;;;;;;15.10;10.27;;;;;;;;;;5116469;28;20114;-65
2024/01/31 04:28:37;;;;;;;14.30;10.10;;;;;;;;;;5116106;28;20032;-65
2024/01/31 04:31:03;;;;;;;14.95;9.82;;;;;;;;;;5116216;28;20020;-63
2024/01/31 04:33:29;;;;;;;14.25;9.80;;;;;;;;;;5098111;28;20123;-62
2024/01/31 04:35:54;;;;;;;13.30;10.20;;;;;;;;;;5116138;28;20115;-62
2024/01/31 04:38:20;;;;;;;12.80;9.65;;;;;;;;;;5116188;28;20070;-62
2024/01/31 04:40:46;;;;;;;15.15;10.25;;;;;;;;;;5115549;28;20069;-63
2024/01/31 04:43:15;;;;;;;13.60;9.23;;;;;;;;;;5116108;28;20027;-62
2024/01/31 04:45:41;;;;;;;14.35;8.88;;;;;;;;;;5116019;28;20015;-62
2024/01/31 04:48:06;;;;;;;12.23;9.20;;;;;;;;;;5115442;28;20015;-62
2024/01/31 04:50:32;;;;;;;12.90;8.60;;;;;;;;;;5114803;28;20114;-62
2024/01/31 04:52:57;;;;;;;9.13;7.35;;;;;;;;;;5096280;28;20043;-62
2024/01/31 04:55:23;;;;;;;11.45;9.15;;;;;;;;;;5114430;28;20046;-63
2024/01/31 04:57:49;;;;;;;9.45;7.75;;;;;;;;;;5114161;28;20023;-63
2024/01/31 05:00:15;;;;;;;10.25;9.02;;;;;;;;;;5114223;28;20020;-63
2024/01/31 05:02:40;;;;;;;10.43;7.53;;;;;;;;;;5113581;28;20039;-63
2024/01/31 05:05:06;;;;;;;9.43;7.43;;;;;;;;;;5113404;28;20093;-64
2024/01/31 05:07:31;;;;;;;9.73;7.55;;;;;;;;;;5114826;28;20023;-63
2024/01/31 05:09:57;;;;;;;9.43;8.15;;;;;;;;;;5096719;28;20427;-64
2024/01/31 05:12:22;;;;;;;8.95;7.30;;;;;;;;;;5115230;28;20359;-62
2024/01/31 05:14:47;;;;;;;8.55;7.68;;;;;;;;;;5115227;28;20029;-62
2024/01/31 05:17:15;;;;;;;10.48;8.20;;;;;;;;;;5114830;28;20519;-69
2024/01/31 05:19:41;;;;;;;7.70;6.88;;;;;;;;;;5114583;28;20082;-70
2024/01/31 05:22:06;;;;;;;9.32;7.63;;;;;;;;;;5114924;28;20117;-71
2024/01/31 05:24:32;;;;;;;10.65;8.25;;;;;;;;;;5115372;28;20454;-69
2024/01/31 05:27:03;;;;;;;12.40;9.73;;;;;;;;;;5096602;28;20016;-69
2024/01/31 05:29:29;;;;;;;15.00;10.73;;;;;;;;;;5114919;28;20035;-69
2024/01/31 05:31:54;;;;;;;11.95;9.23;;;;;;;;;;5114904;28;20039;-69
2024/01/31 05:34:21;;;;;;;12.23;8.55;;;;;;;;;;5114588;28;20358;-69
2024/01/31 05:36:46;;;;;;;9.35;8.32;;;;;;;;;;5114762;28;20060;-70
2024/01/31 05:39:11;;;;;;;10.85;9.20;;;;;;;;;;5114530;28;20023;-69
2024/01/31 05:41:40;;;;;;;9.48;7.72;;;;;;;;;;5114417;28;20023;-69
2024/01/31 05:44:05;;;;;;;8.57;7.45;;;;;;;;;;5115000;28;20015;-69
2024/01/31 05:46:32;;;;;;;8.95;7.30;;;;;;;;;;5114752;28;20119;-69
2024/01/31 05:48:57;;;;;;;8.85;7.90;;;;;;;;;;5114659;28;20080;-69
2024/01/31 05:51:23;;;;;;;12.57;8.85;;;;;;;;;;5114930;28;20036;-69
2024/01/31 05:53:48;;;;;;;13.25;9.13;;;;;;;;;;5087930;28;20080;-68
2024/01/31 05:56:15;;;;;;;12.57;8.40;;;;;;;;;;5112295;28;20035;-69
2024/01/31 05:58:42;;;;;;;10.98;8.45;;;;;;;;;;5111612;28;20027;-69
2024/01/31 06:01:07;;;;;;;16.13;10.07;;;;;;;;;;5096823;28;20126;-59
2024/01/31 06:03:33;;;;;;;12.60;9.27;;;;;;;;;;5111676;28;20114;-59
2024/01/31 06:05:58;;;;;;;10.85;8.18;;;;;;;;;;5111826;28;20036;-59
2024/01/31 06:08:24;;;;;;;12.25;9.43;;;;;;;;;;5111804;28;20035;-59
2024/01/31 06:10:53;;;;;;;11.88;8.90;;;;;;;;;;5111790;28;20027;-69
2024/01/31 06:13:19;;;;;;;13.10;9.40;;;;;;;;;;5109887;28;20481;-69
2024/01/31 06:15:44;;;;;;;11.40;9.13;;;;;;;;;;5113524;28;20063;-68
2024/01/31 06:18:09;;;;;;;12.20;9.23;;;;;;;;;;5114586;28;20347;-68
2024/01/31 06:20:40;;;;;;;10.88;9.00;;;;;;;;;;5112715;28;20059;-68
2024/01/31 06:23:06;;;;;;;11.48;8.30;;;;;;;;;;5113893;28;20016;-67
2024/01/31 06:25:32;;;;;;;14.77;9.60;;;;;;;;;;5112853;28;20481;-69
2024/01/31 06:27:57;;;;;;;12.35;8.98;;;;;;;;;;5113267;28;20075;-69
2024/01/31 06:30:31;;;;;;;18.80;11.77;;;;;;;;;;5115255;28;20492;-69
2024/01/31 06:33:05;;;;;;;15.32;11.63;;;;;;;;;;5118426;28;20084;-69
2024/01/31 06:35:30;;;;;;;17.25;11.68;;;;;;;;;;5118611;28;20044;-69
2024/01/31 06:37:56;;;;;;;11.55;8.40;;;;;;;;;;5117446;28;20028;-70
2024/01/31 06:40:22;;;;;;;13.23;9.30;;;;;;;;;;5116427;28;20416;-69
2024/01/31 06:42:48;;;;;;;11.25;7.78;;;;;;;;;;5116009;28;20019;-69
2024/01/31 06:45:14;;;;;;;15.02;9.88;;;;;;;;;;5114812;28;20366;-69
2024/01/31 06:47:39;;;;;;;10.57;8.52;;;;;;;;;;5115998;28;20389;-69
2024/01/31 06:50:05;;;;;;;12.00;8.90;;;;;;;;;;5116054;28;20028;-69
2024/01/31 06:52:30;;;;;;;11.63;9.23;;;;;;;;;;5115909;28;20028;-69
2024/01/31 06:54:56;;;;;;;13.43;9.10;;;;;;;;;;5116176;28;20028;-69
2024/01/31 06:57:21;;;;;;;19.35;13.07;;;;;;;;;;5118212;28;20019;-69
2024/01/31 06:59:46;;;;;;;21.00;14.10;;;;;;;;;;5117636;28;20496;-69
2024/01/31 07:02:12;;;;;;;17.75;12.18;;;;;;;;;;5117491;28;20031;-69
2024/01/31 07:04:37;;;;;;;15.48;11.07;;;;;;;;;;5117488;28;20505;-69
2024/01/31 07:07:04;;;;;;;15.18;9.75;;;;;;;;;;5118062;28;20100;-69
2024/01/31 07:09:29;;;;;;;13.90;10.77;;;;;;;;;;5117693;28;20056;-69
2024/01/31 07:11:56;;;;;;;15.43;11.75;;;;;;;;;;5117660;28;20413;-69
2024/01/31 07:14:21;;;;;;;11.43;8.95;;;;;;;;;;5117313;28;20008;-69
2024/01/31 07:16:47;;;;;;;11.15;8.60;;;;;;;;;;5117493;28;20024;-69
2024/01/31 07:19:13;;;;;;;13.90;9.80;;;;;;;;;;5117541;28;20037;-69
2024/01/31 07:21:38;;;;;;;17.10;12.65;;;;;;;;;;5117161;28;20076;-69
2024/01/31 07:24:04;;;;;;;14.73;10.68;;;;;;;;;;5117398;28;20032;-69
2024/01/31 07:26:30;;;;;;;11.27;9.60;;;;;;;;;;5117340;28;20027;-69
2024/01/31 07:28:55;;;;;;;13.20;9.25;;;;;;;;;;5099193;28;20063;-68
2024/01/31 07:31:20;;;;;;;16.85;12.95;;;;;;;;;;5117000;28;20057;-68
2024/01/31 07:33:46;;;;;;;14.80;11.52;;;;;;;;;;5099297;28;20035;-69
2024/01/31 07:36:11;;;;;;;16.67;12.02;;;;;;;;;;5098670;28;20020;-69
2024/01/31 07:38:40;;;;;;;12.75;10.05;;;;;;;;;;5098566;28;20036;-68
2024/01/31 07:41:06;;;;;;;16.58;12.38;;;;;;;;;;5116276;28;20020;-69
2024/01/31 07:43:31;;;;;;;14.32;10.70;;;;;;;;;;5098483;28;20458;-69
2024/01/31 07:45:57;;;;;;;15.10;11.75;;;;;;;;;;5098720;28;20023;-69
2024/01/31 07:48:22;;;;;;;16.77;10.90;;;;;;;;;;5098418;28;20047;-69
2024/01/31 07:50:47;;;;;;;15.52;11.18;;;;;;;;;;5116875;28;20130;-69
2024/01/31 07:53:12;;;;;;;14.82;10.23;;;;;;;;;;5116558;28;20068;-69
2024/01/31 07:55:38;;;;;;;14.20;11.10;;;;;;;;;;5116780;28;20073;-68
2024/01/31 07:58:03;;;;;;;16.23;11.98;;;;;;;;;;5116673;28;20039;-68
2024/01/31 08:00:29;;;;;;;16.63;12.10;;;;;;;;;;5116527;28;20038;-68
2024/01/31 08:02:54;;;;;;;15.32;11.27;;;;;;;;;;5116678;28;20042;-69
2024/01/31 08:05:21;;;;;;;17.67;12.73;;;;;;;;;;5116370;28;20031;-69
2024/01/31 08:07:46;;;;;;;20.33;14.13;;;;;;;;;;5116571;28;20028;-69
2024/01/31 08:10:12;;;;;;;18.05;12.00;;;;;;;;;;5098707;28;20036;-69
2024/01/31 08:12:38;;;;;;;14.70;10.00;;;;;;;;;;5116515;28;20023;-69
2024/01/31 08:15:03;;;;;;;17.35;11.23;;;;;;;;;;5116472;28;20485;-69
2024/01/31 08:17:29;;;;;;;15.30;10.93;;;;;;;;;;5116349;28;20020;-69
2024/01/31 08:19:54;;;;;;;19.48;14.18;;;;;;;;;;5116354;28;20019;-69
2024/01/31 08:22:20;;;;;;;19.13;13.98;;;;;;;;;;5097715;28;20457;-69
2024/01/31 08:24:46;;;;;;;17.20;12.13;;;;;;;;;;5116526;28;20023;-69
2024/01/31 08:27:11;;;;;;;12.20;9.10;;;;;;;;;;5116453;28;20092;-69
2024/01/31 08:29:37;;;;;;;12.80;10.80;;;;;;;;;;5115858;28;20032;-68
2024/01/31 08:32:02;;;;;;;22.27;14.35;;;;;;;;;;5115821;28;20070;-69
2024/01/31 08:34:27;;;;;;;20.95;14.40;;;;;;;;;;5097553;28;20035;-69
2024/01/31 08:36:53;;;;;;;14.52;10.38;;;;;;;;;;5115653;28;20030;-69
2024/01/31 08:39:18;;;;;;;17.90;14.18;;;;;;;;;;5115649;28;20485;-69
2024/01/31 08:41:44;;;;;;;16.00;12.30;;;;;;;;;;5097483;28;20027;-69
2024/01/31 08:44:09;;;;;;;18.17;12.85;;;;;;;;;;5115602;28;20445;-69
2024/01/31 08:46:35;;;;;;;18.88;13.25;;;;;;;;;;5115631;28;20027;-69
2024/01/31 08:49:00;;;;;;;25.50;15.25;;;;;;;;;;5116051;28;20039;-69
2024/01/31 08:51:26;;;;;;;29.45;16.45;;;;;;;;;;5115719;28;20051;-69
2024/01/31 08:53:52;;;;;;;19.13;12.45;;;;;;;;;;5097067;28;20477;-69
2024/01/31 08:56:17;;;;;;;13.60;10.15;;;;;;;;;;5115349;28;20035;-69
2024/01/31 08:58:42;;;;;;;26.40;16.00;;;;;;;;;;5096949;28;20081;-69
2024/01/31 09:01:08;;;;;;;20.13;14.02;;;;;;;;;;5115057;28;20036;-69
2024/01/31 09:03:33;;;;;;;16.35;11.48;;;;;;;;;;5115189;28;20128;-69
2024/01/31 09:05:58;;;;;;;16.65;10.82;;;;;;;;;;5115157;28;20465;-69
2024/01/31 09:08:24;;;;;;;17.73;12.25;;;;;;;;;;5096931;28;20058;-69
2024/01/31 09:10:49;;;;;;;18.17;11.60;;;;;;;;;;5115347;28;20042;-69
2024/01/31 09:13:14;;;;;;;17.80;13.10;;;;;;;;;;5096689;28;20038;-69
2024/01/31 09:15:41;;;;;;;21.50;14.15;;;;;;;;;;5114992;28;20027;-69
2024/01/31 09:18:06;;;;;;;22.05;15.93;;;;;;;;;;5115171;28;20046;-69
2024/01/31 09:20:32;;;;;;;38.03;23.05;;;;;;;;;;5114886;28;20461;-69
2024/01/31 09:22:57;;;;;;;47.15;26.42;;;;;;;;;;5114821;28;20019;-69
2024/01/31 09:25:23;;;;;;;38.15;23.90;;;;;;;;;;5114802;28;20530;-68
2024/01/31 09:27:48;;;;;;;41.85;26.77;;;;;;;;;;5115029;28;20038;-69
2024/01/31 09:30:13;;;;;;;40.15;25.20;;;;;;;;;;5114997;28;20031;-69
2024/01/31 09:32:39;;;;;;;24.33;17.42;;;;;;;;;;5114948;28;20028;-69
2024/01/31 09:35:05;;;;;;;18.50;12.80;;;;;;;;;;5114888;28;20031;-68
2024/01/31 09:37:32;;;;;;;18.40;12.75;;;;;;;;;;5114527;28;20037;-69
2024/01/31 09:39:57;;;;;;;19.83;13.90;;;;;;;;;;5096279;28;20385;-69
2024/01/31 09:42:23;;;;;;;23.42;14.27;;;;;;;;;;5114509;28;20027;-69
2024/01/31 09:44:50;;;;;;;16.35;10.80;;;;;;;;;;5114728;28;20019;-68
2024/01/31 09:47:15;;;;;;;14.13;10.18;;;;;;;;;;5096144;28;20125;-69
2024/01/31 09:49:40;;;;;;;19.95;12.07;;;;;;;;;;5114672;28;20027;-68
2024/01/31 09:52:07;;;;;;;18.60;12.18;;;;;;;;;;5096069;28;20027;-69
2024/01/31 09:54:33;;;;;;;14.27;9.43;;;;;;;;;;5114377;28;20469;-69
2024/01/31 09:57:00;;;;;;;15.07;10.68;;;;;;;;;;5114229;28;20087;-69
2024/01/31 09:59:25;;;;;;;16.88;12.25;;;;;;;;;;5114243;28;20038;-69
2024/01/31 10:01:52;;;;;;;16.33;10.88;;;;;;;;;;5105655;28;20478;-69
2024/01/31 10:04:18;;;;;;;18.58;13.45;;;;;;;;;;5114041;28;20020;-69
2024/01/31 10:06:43;;;;;;;20.17;12.85;;;;;;;;;;5114235;28;20080;-69
2024/01/31 10:09:09;;;;;;;16.13;10.75;;;;;;;;;;5114192;28;20127;-68
2024/01/31 10:11:35;;;;;;;16.00;10.48;;;;;;;;;;5114113;28;20036;-69
2024/01/31 10:14:00;;;;;;;16.15;11.10;;;;;;;;;;5114705;28;20020;-70
2024/01/31 10:16:26;;;;;;;13.10;10.23;;;;;;;;;;5112864;28;20031;-69
2024/01/31 10:18:51;;;;;;;17.38;12.02;;;;;;;;;;5114295;28;20107;-69
2024/01/31 10:21:19;;;;;;;15.13;10.57;;;;;;;;;;5112907;28;20102;-69
2024/01/31 10:23:54;;;;;;;22.08;13.73;;;;;;;;;;5114041;28;20031;-69
2024/01/31 10:26:20;;;;;;;19.45;13.30;;;;;;;;;;5112841;28;20024;-69
2024/01/31 10:28:45;;;;;;;15.05;10.30;;;;;;;;;;5114025;28;20366;-69
2024/01/31 10:31:12;;;;;;;16.13;11.85;;;;;;;;;;5112711;28;20026;-69
2024/01/31 10:33:38;;;;;;;15.02;10.23;;;;;;;;;;5112670;28;20107;-68
2024/01/31 10:36:04;;;;;;;15.55;10.23;;;;;;;;;;5114237;28;20028;-69
2024/01/31 10:38:29;;;;;;;15.93;10.50;;;;;;;;;;5114133;28;20035;-69
2024/01/31 10:40:55;;;;;;;16.20;10.13;;;;;;;;;;5114462;28;20022;-68
2024/01/31 10:43:21;;;;;;;17.17;11.13;;;;;;;;;;5114153;28;20035;-68
2024/01/31 10:45:47;;;;;;;14.13;10.57;;;;;;;;;;5114117;28;20032;-69
2024/01/31 10:48:13;;;;;;;17.17;11.10;;;;;;;;;;5114143;28;20019;-68
2024/01/31 10:50:39;;;;;;;13.63;9.88;;;;;;;;;;5114125;28;20116;-69
2024/01/31 10:53:04;;;;;;;13.73;9.55;;;;;;;;;;5112566;28;20079;-68
2024/01/31 10:55:31;;;;;;;20.27;11.30;;;;;;;;;;5114035;28;20031;-68
2024/01/31 10:57:56;;;;;;;14.32;9.13;;;;;;;;;;5112346;28;20072;-68
2024/01/31 11:00:25;;;;;;;15.13;10.50;;;;;;;;;;5113521;28;20028;-68
2024/01/31 11:02:51;;;;;;;19.48;12.82;;;;;;;;;;5113678;28;20036;-69
2024/01/31 11:05:17;;;;;;;15.93;11.23;;;;;;;;;;5095374;28;20080;-69
2024/01/31 11:07:45;;;;;;;16.45;11.43;;;;;;;;;;5113895;28;20024;-70
2024/01/31 11:10:25;;;;;;;17.23;11.43;;;;;;;;;;5113892;28;20358;-68
2024/01/31 11:12:57;;;;;;;20.88;11.77;;;;;;;;;;5113589;28;20042;-69
2024/01/31 11:15:33;;;;;;;20.05;13.73;;;;;;;;;;5113851;28;20036;-68
2024/01/31 11:18:11;;;;;;;20.38;14.00;;;;;;;;;;5098419;28;20481;-68
2024/01/31 11:20:40;;;;;;;14.93;11.40;;;;;;;;;;5117536;28;20118;-68
2024/01/31 11:23:05;;;;;;;20.60;13.02;;;;;;;;;;5117710;28;20445;-68
2024/01/31 11:25:34;;;;;;;22.45;14.70;;;;;;;;;;5117167;28;20027;-69
2024/01/31 11:28:00;;;;;;;19.95;14.60;;;;;;;;;;5117397;28;20043;-68
2024/01/31 11:30:26;;;;;;;25.23;16.25;;;;;;;;;;5117317;28;20023;-69
2024/01/31 11:32:51;;;;;;;26.30;16.38;;;;;;;;;;5117305;28;20541;-69
2024/01/31 11:35:17;;;;;;;31.20;17.75;;;;;;;;;;5116933;28;20529;-68
2024/01/31 11:37:42;;;;;;;22.85;14.80;;;;;;;;;;5117148;28;20427;-69
2024/01/31 11:40:08;;;;;;;23.67;14.95;;;;;;;;;;5098555;28;20027;-69
2024/01/31 11:42:33;;;;;;;24.63;15.15;;;;;;;;;;5117385;28;20046;-69
2024/01/31 11:44:59;;;;;;;21.63;14.20;;;;;;;;;;5116784;28;20028;-68
2024/01/31 11:47:24;;;;;;;21.80;15.05;;;;;;;;;;5098445;28;20027;-69
2024/01/31 11:49:50;;;;;;;22.63;14.60;;;;;;;;;;5116950;28;20027;-69
2024/01/31 11:52:15;;;;;;;17.80;13.13;;;;;;;;;;5117126;28;20081;-68
2024/01/31 11:54:40;;;;;;;18.13;13.25;;;;;;;;;;5116594;28;20114;-68
2024/01/31 11:57:07;;;;;;;18.42;13.65;;;;;;;;;;5116972;28;20065;-69
2024/01/31 11:59:32;;;;;;;21.75;13.93;;;;;;;;;;5116487;28;20019;-69
2024/01/31 12:01:58;;;;;;;21.25;13.88;;;;;;;;;;5116393;28;20087;-69
2024/01/31 12:04:23;;;;;;;23.48;15.00;;;;;;;;;;5116434;28;20027;-69
2024/01/31 12:06:49;;;;;;;18.67;12.52;;;;;;;;;;5098515;28;20116;-69
2024/01/31 12:09:15;;;;;;;21.67;14.40;;;;;;;;;;5116864;28;20031;-69
2024/01/31 12:11:41;;;;;;;19.30;13.55;;;;;;;;;;5116299;28;20063;-69
2024/01/31 12:14:06;;;;;;;19.17;13.52;;;;;;;;;;5116528;28;20035;-69
2024/01/31 12:16:39;;;;;;;15.63;11.50;;;;;;;;;;5116183;28;20059;-69
2024/01/31 12:19:05;;;;;;;19.17;13.10;;;;;;;;;;5116060;28;20047;-70
2024/01/31 12:21:38;;;;;;;21.02;14.90;;;;;;;;;;5116075;28;20462;-69
2024/01/31 12:24:04;;;;;;;27.55;18.30;;;;;;;;;;5116323;28;20063;-68
2024/01/31 12:26:29;;;;;;;18.45;13.63;;;;;;;;;;5116274;28;20043;-69
2024/01/31 12:28:55;;;;;;;23.58;16.60;;;;;;;;;;5115590;28;20024;-69
2024/01/31 12:31:21;;;;;;;26.90;18.08;;;;;;;;;;5097619;28;20115;-68
2024/01/31 12:33:46;;;;;;;26.77;18.05;;;;;;;;;;5116383;28;20028;-69
2024/01/31 12:36:13;;;;;;;27.33;19.17;;;;;;;;;;5115786;28;20039;-69
2024/01/31 12:38:38;;;;;;;27.08;18.08;;;;;;;;;;5097331;28;20438;-68
2024/01/31 12:41:04;;;;;;;27.40;18.35;;;;;;;;;;5115687;28;20058;-69
2024/01/31 12:43:29;;;;;;;29.75;18.58;;;;;;;;;;5115635;28;20045;-68
2024/01/31 12:45:54;;;;;;;22.75;14.48;;;;;;;;;;5115527;28;20023;-68
2024/01/31 12:48:20;;;;;;;19.85;13.70;;;;;;;;;;5097274;28;20036;-69
2024/01/31 12:50:45;;;;;;;23.92;14.90;;;;;;;;;;5097197;28;20073;-69
2024/01/31 12:53:11;;;;;;;28.30;16.65;;;;;;;;;;5115407;28;20051;-68
2024/01/31 12:55:36;;;;;;;22.38;13.18;;;;;;;;;;5115920;28;20069;-69
2024/01/31 12:58:02;;;;;;;18.52;11.88;;;;;;;;;;5115551;28;20031;-68
2024/01/31 13:00:27;;;;;;;20.52;14.48;;;;;;;;;;5096923;28;20468;-68
2024/01/31 13:02:52;;;;;;;21.13;13.10;;;;;;;;;;5115230;28;20354;-68
2024/01/31 13:05:18;;;;;;;19.98;13.10;;;;;;;;;;5115699;28;20031;-68
2024/01/31 13:07:43;;;;;;;20.15;14.40;;;;;;;;;;5115436;28;20031;-68
2024/01/31 13:10:09;;;;;;;27.63;18.80;;;;;;;;;;5096807;28;20469;-69
2024/01/31 13:12:34;;;;;;;22.42;15.30;;;;;;;;;;5096715;28;20034;-68
2024/01/31 13:14:59;;;;;;;19.15;12.65;;;;;;;;;;5115598;28;20037;-68
2024/01/31 13:17:25;;;;;;;24.33;14.05;;;;;;;;;;5090891;28;20058;-68
2024/01/31 13:19:51;;;;;;;18.33;12.73;;;;;;;;;;5084350;28;21154;-68
2024/01/31 13:22:16;;;;;;;22.23;13.77;;;;;;;;;;5101729;28;20039;-68
2024/01/31 13:24:42;;;;;;;23.98;16.35;;;;;;;;;;5114797;28;20031;-67
2024/01/31 13:27:07;;;;;;;27.90;16.95;;;;;;;;;;5115012;28;20031;-68
2024/01/31 13:29:32;;;;;;;21.30;14.48;;;;;;;;;;5114697;28;20027;-68
2024/01/31 13:31:58;;;;;;;29.52;18.83;;;;;;;;;;5114728;28;20028;-68
2024/01/31 13:34:23;;;;;;;22.17;14.18;;;;;;;;;;5096450;28;20382;-68
2024/01/31 13:36:51;;;;;;;20.08;13.40;;;;;;;;;;5096503;28;20028;-67
2024/01/31 13:39:17;;;;;;;20.27;12.38;;;;;;;;;;5113961;28;20418;-69
2024/01/31 13:41:42;;;;;;;18.85;12.93;;;;;;;;;;5115057;28;20047;-69
2024/01/31 13:44:08;;;;;;;19.73;13.40;;;;;;;;;;5114408;28;20028;-69
2024/01/31 13:46:33;;;;;;;24.48;15.75;;;;;;;;;;5114509;28;20090;-67
2024/01/31 13:48:59;;;;;;;22.05;14.63;;;;;;;;;;5114401;28;20027;-67
2024/01/31 13:51:25;;;;;;;22.90;15.45;;;;;;;;;;5114640;28;20036;-68
2024/01/31 13:53:51;;;;;;;24.30;17.25;;;;;;;;;;5096395;28;20122;-67
2024/01/31 13:56:16;;;;;;;27.30;18.45;;;;;;;;;;5114645;28;20094;-67
2024/01/31 13:58:43;;;;;;;30.23;20.83;;;;;;;;;;5114074;28;20051;-67
2024/01/31 14:01:08;;;;;;;34.50;23.13;;;;;;;;;;5114464;28;20035;-68
2024/01/31 14:03:34;;;;;;;27.98;19.42;;;;;;;;;;5114782;28;20114;-68
2024/01/31 14:05:59;;;;;;;26.75;19.00;;;;;;;;;;5114228;28;20022;-68
2024/01/31 14:08:24;;;;;;;26.00;18.45;;;;;;;;;;5114740;28;20412;-68
2024/01/31 14:10:50;;;;;;;25.52;17.40;;;;;;;;;;5117934;22;20056;-59
2024/01/31 14:13:15;;;;;;;31.20;19.65;;;;;;;;;;5091994;28;20111;-68
2024/01/31 14:15:41;;;;;;;25.88;16.92;;;;;;;;;;5091834;28;20062;-68